sensor_id;sensor_type;location;lat;lon;timestamp;pressure;altitude;pressure_sealevel;temperature;humidity
69219;BME280;56232;53.384;-2.732;2022-10-17T00:01:45;99998.40;;;13.06;44.18
69219;BME280;56232;53.384;-2.732;2022-10-17T00:04:10;100016.58;;;13.67;43.91
69219;BME280;56232;53.384;-2.732;2022-10-17T00:06:36;100034.28;;;14.72;43.62
69219;BME280;56232;53.384;-2.732;2022-10-17T00:09:02;100042.92;;;14.86;43.12
69219;BME280;56232;53.384;-2.732;2022-10-17T00:11:27;100034.33;;;14.03;43.68
69219;BME280;56232;53.384;-2.732;2022-10-17T00:13:53;100033.63;;;14.20;43.69
69219;BME280;56232;53.384;-2.732;2022-10-17T00:16:23;100033.94;;;13.43;43.92
69219;BME280;56232;53.384;-2.732;2022-10-17T00:18:43;100037.79;;;14.14;43.23
69219;BME280;56232;53.384;-2.732;2022-10-17T00:21:15;100045.62;;;14.43;43.32
69219;BME280;56232;53.384;-2.732;2022-10-17T00:23:35;100051.66;;;14.32;43.34
69219;BME280;56232;53.384;-2.732;2022-10-17T00:26:02;100049.31;;;14.63;42.71
69219;BME280;56232;53.384;-2.732;2022-10-17T00:28:26;100042.64;;;14.45;42.85
69219;BME280;56232;53.384;-2.732;2022-10-17T00:30:55;100027.49;;;15.28;43.15
69219;BME280;56232;53.384;-2.732;2022-10-17T00:33:17;100023.87;;;15.20;43.53
69219;BME280;56232;53.384;-2.732;2022-10-17T00:35:43;100046.25;;;14.08;43.28
69219;BME280;56232;53.384;-2.732;2022-10-17T00:38:08;100050.25;;;13.69;43.58
69219;BME280;56232;53.384;-2.732;2022-10-17T00:40:35;100052.33;;;14.42;43.93
69219;BME280;56232;53.384;-2.732;2022-10-17T00:43:00;100055.44;;;14.12;44.31
69219;BME280;56232;53.384;-2.732;2022-10-17T00:45:28;100056.83;;;14.50;44.92
69219;BME280;56232;53.384;-2.732;2022-10-17T00:47:55;100056.24;;;13.97;44.73
69219;BME280;56232;53.384;-2.732;2022-10-17T00:50:17;100053.64;;;14.04;44.98
69219;BME280;56232;53.384;-2.732;2022-10-17T00:52:48;100054.76;;;13.64;44.77
69219;BME280;56232;53.384;-2.732;2022-10-17T00:55:11;100053.57;;;13.75;44.57
69219;BME280;56232;53.384;-2.732;2022-10-17T00:57:35;100061.55;;;14.40;44.71
69219;BME280;56232;53.384;-2.732;2022-10-17T01:00:03;100053.71;;;13.37;43.93
69219;BME280;56232;53.384;-2.732;2022-10-17T01:02:25;100051.54;;;14.01;43.53
69219;BME280;56232;53.384;-2.732;2022-10-17T01:04:51;100058.33;;;13.63;43.75
69219;BME280;56232;53.384;-2.732;2022-10-17T01:07:16;100062.88;;;14.40;43.73
69219;BME280;56232;53.384;-2.732;2022-10-17T01:09:42;100060.29;;;14.46;43.40
69219;BME280;56232;53.384;-2.732;2022-10-17T01:12:15;100059.50;;;13.93;43.86
69219;BME280;56232;53.384;-2.732;2022-10-17T01:14:39;100076.74;;;13.60;44.10
69219;BME280;56232;53.384;-2.732;2022-10-17T01:17:01;100120.53;;;13.98;43.05
69219;BME280;56232;53.384;-2.732;2022-10-17T01:19:37;100120.04;;;13.75;42.54
69219;BME280;56232;53.384;-2.732;2022-10-17T01:21:53;100127.24;;;13.19;42.92
69219;BME280;56232;53.384;-2.732;2022-10-17T01:26:54;100118.97;;;13.16;43.33
69219;BME280;56232;53.384;-2.732;2022-10-17T01:29:22;100130.99;;;13.04;43.47
69219;BME280;56232;53.384;-2.732;2022-10-17T01:31:37;100138.77;;;13.58;42.76
69219;BME280;56232;53.384;-2.732;2022-10-17T01:34:01;100140.05;;;13.49;42.61
69219;BME280;56232;53.384;-2.732;2022-10-17T01:36:33;100142.03;;;12.90;42.48
69219;BME280;56232;53.384;-2.732;2022-10-17T01:38:52;100138.47;;;13.29;42.90
69219;BME280;56232;53.384;-2.732;2022-10-17T01:41:22;100151.14;;;13.23;42.87
69219;BME280;56232;53.384;-2.732;2022-10-17T01:43:43;100149.37;;;13.13;42.92
69219;BME280;56232;53.384;-2.732;2022-10-17T01:46:10;100154.82;;;13.14;43.18
69219;BME280;56232;53.384;-2.732;2022-10-17T01:48:35;100157.53;;;13.21;42.97
69219;BME280;56232;53.384;-2.732;2022-10-17T01:51:02;100154.80;;;13.27;43.21
69219;BME280;56232;53.384;-2.732;2022-10-17T01:53:27;100161.78;;;12.82;43.06
69219;BME280;56232;53.384;-2.732;2022-10-17T01:55:49;100156.52;;;13.30;42.67
69219;BME280;56232;53.384;-2.732;2022-10-17T01:58:19;100146.03;;;12.86;42.71
69219;BME280;56232;53.384;-2.732;2022-10-17T02:00:40;100141.38;;;13.44;43.22
69219;BME280;56232;53.384;-2.732;2022-10-17T02:03:07;100142.36;;;12.45;43.05
69219;BME280;56232;53.384;-2.732;2022-10-17T02:05:35;100145.68;;;12.97;42.81
69219;BME280;56232;53.384;-2.732;2022-10-17T02:07:56;100138.92;;;13.48;43.02
69219;BME280;56232;53.384;-2.732;2022-10-17T02:10:29;100148.48;;;12.48;42.86
69219;BME280;56232;53.384;-2.732;2022-10-17T02:12:52;100155.91;;;12.56;43.36
69219;BME280;56232;53.384;-2.732;2022-10-17T02:15:25;100139.51;;;12.73;43.51
69219;BME280;56232;53.384;-2.732;2022-10-17T02:17:44;100142.27;;;13.39;42.93
69219;BME280;56232;53.384;-2.732;2022-10-17T02:20:11;100140.76;;;13.21;42.84
69219;BME280;56232;53.384;-2.732;2022-10-17T02:22:36;100138.84;;;13.14;41.32
69219;BME280;56232;53.384;-2.732;2022-10-17T02:25:01;100152.24;;;12.43;41.81
69219;BME280;56232;53.384;-2.732;2022-10-17T02:27:30;100149.95;;;13.46;41.70
69219;BME280;56232;53.384;-2.732;2022-10-17T02:29:48;100150.09;;;12.85;41.94
69219;BME280;56232;53.384;-2.732;2022-10-17T02:32:16;100145.61;;;12.69;41.23
69219;BME280;56232;53.384;-2.732;2022-10-17T02:34:39;100146.62;;;13.08;41.37
69219;BME280;56232;53.384;-2.732;2022-10-17T02:37:05;100154.12;;;13.08;41.68
69219;BME280;56232;53.384;-2.732;2022-10-17T02:39:30;100155.59;;;13.10;41.16
69219;BME280;56232;53.384;-2.732;2022-10-17T02:41:57;100156.14;;;12.92;41.36
69219;BME280;56232;53.384;-2.732;2022-10-17T02:44:20;100163.78;;;12.84;40.89
69219;BME280;56232;53.384;-2.732;2022-10-17T02:46:50;100166.86;;;12.69;41.08
69219;BME280;56232;53.384;-2.732;2022-10-17T02:49:16;100170.84;;;12.72;41.05
69219;BME280;56232;53.384;-2.732;2022-10-17T02:51:41;100176.43;;;12.64;40.91
69219;BME280;56232;53.384;-2.732;2022-10-17T02:54:08;100176.53;;;12.66;41.10
69219;BME280;56232;53.384;-2.732;2022-10-17T02:56:31;100173.95;;;12.70;40.88
69219;BME280;56232;53.384;-2.732;2022-10-17T02:58:56;100175.14;;;12.70;41.26
69219;BME280;56232;53.384;-2.732;2022-10-17T03:01:20;100177.88;;;12.77;41.13
69219;BME280;56232;53.384;-2.732;2022-10-17T03:03:45;100187.53;;;12.46;40.42
69219;BME280;56232;53.384;-2.732;2022-10-17T03:06:10;100186.62;;;12.45;40.54
69219;BME280;56232;53.384;-2.732;2022-10-17T03:08:36;100177.59;;;13.04;40.86
69219;BME280;56232;53.384;-2.732;2022-10-17T03:11:02;100175.72;;;12.63;40.58
69219;BME280;56232;53.384;-2.732;2022-10-17T03:13:28;100179.08;;;13.20;40.85
69219;BME280;56232;53.384;-2.732;2022-10-17T03:15:55;100180.73;;;12.19;41.01
69219;BME280;56232;53.384;-2.732;2022-10-17T03:18:18;100185.60;;;12.73;41.12
69219;BME280;56232;53.384;-2.732;2022-10-17T03:20:44;100187.54;;;13.15;40.42
69219;BME280;56232;53.384;-2.732;2022-10-17T03:23:10;100183.86;;;13.05;40.84
69219;BME280;56232;53.384;-2.732;2022-10-17T03:25:36;100187.45;;;13.01;40.86
69219;BME280;56232;53.384;-2.732;2022-10-17T03:28:01;100189.90;;;12.94;41.02
69219;BME280;56232;53.384;-2.732;2022-10-17T03:30:27;100196.71;;;12.89;40.92
69219;BME280;56232;53.384;-2.732;2022-10-17T03:32:52;100200.32;;;12.82;41.07
69219;BME280;56232;53.384;-2.732;2022-10-17T03:35:18;100197.68;;;12.85;41.03
69219;BME280;56232;53.384;-2.732;2022-10-17T03:37:43;100200.10;;;12.77;41.09
69219;BME280;56232;53.384;-2.732;2022-10-17T03:40:10;100199.70;;;12.64;40.61
69219;BME280;56232;53.384;-2.732;2022-10-17T03:42:36;100192.65;;;12.58;40.65
69219;BME280;56232;53.384;-2.732;2022-10-17T03:45:00;100195.80;;;12.63;40.43
69219;BME280;56232;53.384;-2.732;2022-10-17T03:47:27;100197.93;;;12.58;40.73
69219;BME280;56232;53.384;-2.732;2022-10-17T03:49:52;100206.16;;;12.45;40.35
69219;BME280;56232;53.384;-2.732;2022-10-17T03:52:17;100206.86;;;12.28;40.08
69219;BME280;56232;53.384;-2.732;2022-10-17T03:54:43;100207.80;;;12.79;40.47
69219;BME280;56232;53.384;-2.732;2022-10-17T03:57:08;100207.07;;;12.16;40.48
69219;BME280;56232;53.384;-2.732;2022-10-17T03:59:35;100213.14;;;12.15;40.39
69219;BME280;56232;53.384;-2.732;2022-10-17T04:02:00;100219.18;;;12.13;40.27
69219;BME280;56232;53.384;-2.732;2022-10-17T04:04:25;100223.00;;;12.71;40.51
69219;BME280;56232;53.384;-2.732;2022-10-17T04:06:50;100226.46;;;12.78;40.74
69219;BME280;56232;53.384;-2.732;2022-10-17T04:09:16;100229.79;;;12.25;40.39
69219;BME280;56232;53.384;-2.732;2022-10-17T04:11:41;100229.15;;;12.12;40.50
69219;BME280;56232;53.384;-2.732;2022-10-17T04:14:08;100232.08;;;12.83;40.67
69219;BME280;56232;53.384;-2.732;2022-10-17T04:16:33;100235.21;;;13.23;40.41
69219;BME280;56232;53.384;-2.732;2022-10-17T04:18:59;100241.86;;;12.12;40.58
69219;BME280;56232;53.384;-2.732;2022-10-17T04:21:25;100237.75;;;12.18;40.38
69219;BME280;56232;53.384;-2.732;2022-10-17T04:23:52;100242.42;;;12.21;40.44
69219;BME280;56232;53.384;-2.732;2022-10-17T04:26:15;100243.92;;;12.26;40.25
69219;BME280;56232;53.384;-2.732;2022-10-17T04:28:41;100245.92;;;12.30;39.74
69219;BME280;56232;53.384;-2.732;2022-10-17T04:31:10;100245.40;;;12.16;40.17
69219;BME280;56232;53.384;-2.732;2022-10-17T04:33:33;100248.82;;;12.17;40.13
69219;BME280;56232;53.384;-2.732;2022-10-17T04:35:58;100255.18;;;12.73;40.07
69219;BME280;56232;53.384;-2.732;2022-10-17T04:38:24;100258.18;;;12.13;40.15
69219;BME280;56232;53.384;-2.732;2022-10-17T04:40:49;100260.40;;;12.68;40.02
69219;BME280;56232;53.384;-2.732;2022-10-17T04:43:15;100264.76;;;12.17;40.39
69219;BME280;56232;53.384;-2.732;2022-10-17T04:45:41;100267.84;;;12.17;40.14
69219;BME280;56232;53.384;-2.732;2022-10-17T04:48:06;100278.17;;;13.25;40.17
69219;BME280;56232;53.384;-2.732;2022-10-17T04:50:32;100278.42;;;12.14;40.08
69219;BME280;56232;53.384;-2.732;2022-10-17T04:52:58;100278.61;;;12.18;40.37
69219;BME280;56232;53.384;-2.732;2022-10-17T04:55:23;100284.11;;;12.79;39.88
69219;BME280;56232;53.384;-2.732;2022-10-17T04:57:49;100291.06;;;12.10;39.84
69219;BME280;56232;53.384;-2.732;2022-10-17T05:00:14;100298.90;;;12.03;39.84
69219;BME280;56232;53.384;-2.732;2022-10-17T05:02:39;100299.20;;;11.93;39.72
69219;BME280;56232;53.384;-2.732;2022-10-17T05:05:06;100295.60;;;11.89;39.90
69219;BME280;56232;53.384;-2.732;2022-10-17T05:07:30;100301.81;;;11.86;39.70
69219;BME280;56232;53.384;-2.732;2022-10-17T05:09:56;100308.39;;;11.84;39.71
69219;BME280;56232;53.384;-2.732;2022-10-17T05:12:22;100309.18;;;12.44;39.65
69219;BME280;56232;53.384;-2.732;2022-10-17T05:14:47;100311.96;;;11.70;39.68
69219;BME280;56232;53.384;-2.732;2022-10-17T05:17:13;100312.33;;;11.54;39.73
69219;BME280;56232;53.384;-2.732;2022-10-17T05:19:39;100315.37;;;12.40;40.07
69219;BME280;56232;53.384;-2.732;2022-10-17T05:22:04;100325.05;;;11.96;40.02
69219;BME280;56232;53.384;-2.732;2022-10-17T05:24:30;100325.05;;;11.98;39.81
69219;BME280;56232;53.384;-2.732;2022-10-17T05:26:56;100337.53;;;11.97;39.75
69219;BME280;56232;53.384;-2.732;2022-10-17T05:29:21;100334.55;;;12.41;39.89
69219;BME280;56232;53.384;-2.732;2022-10-17T05:31:47;100338.94;;;11.86;40.13
69219;BME280;56232;53.384;-2.732;2022-10-17T05:34:12;100334.89;;;12.24;40.15
69219;BME280;56232;53.384;-2.732;2022-10-17T05:36:38;100334.49;;;12.23;40.03
69219;BME280;56232;53.384;-2.732;2022-10-17T05:39:04;100338.23;;;11.05;40.16
69219;BME280;56232;53.384;-2.732;2022-10-17T05:41:30;100350.25;;;11.11;39.93
69219;BME280;56232;53.384;-2.732;2022-10-17T05:43:55;100348.94;;;12.18;40.08
69219;BME280;56232;53.384;-2.732;2022-10-17T05:46:20;100348.06;;;10.97;40.08
69219;BME280;56232;53.384;-2.732;2022-10-17T05:48:46;100353.65;;;12.04;40.04
69219;BME280;56232;53.384;-2.732;2022-10-17T05:51:12;100354.84;;;10.93;40.12
69219;BME280;56232;53.384;-2.732;2022-10-17T05:53:39;100361.47;;;11.94;40.10
69219;BME280;56232;53.384;-2.732;2022-10-17T05:56:04;100362.03;;;11.87;40.16
69219;BME280;56232;53.384;-2.732;2022-10-17T05:58:28;100371.52;;;11.85;40.25
69219;BME280;56232;53.384;-2.732;2022-10-17T06:00:57;100371.94;;;11.84;40.12
69219;BME280;56232;53.384;-2.732;2022-10-17T06:03:19;100376.40;;;11.85;40.32
69219;BME280;56232;53.384;-2.732;2022-10-17T06:05:44;100382.47;;;11.76;40.18
69219;BME280;56232;53.384;-2.732;2022-10-17T06:08:10;100391.29;;;11.78;39.97
69219;BME280;56232;53.384;-2.732;2022-10-17T06:10:37;100399.57;;;11.64;40.18
69219;BME280;56232;53.384;-2.732;2022-10-17T06:13:01;100409.74;;;11.60;40.13
69219;BME280;56232;53.384;-2.732;2022-10-17T06:15:27;100408.05;;;11.58;39.91
69219;BME280;56232;53.384;-2.732;2022-10-17T06:17:52;100412.96;;;10.42;39.89
69219;BME280;56232;53.384;-2.732;2022-10-17T06:20:18;100419.22;;;10.97;40.10
69219;BME280;56232;53.384;-2.732;2022-10-17T06:22:44;100419.16;;;11.40;40.03
69219;BME280;56232;53.384;-2.732;2022-10-17T06:25:09;100424.71;;;11.27;40.04
69219;BME280;56232;53.384;-2.732;2022-10-17T06:27:36;100429.47;;;11.58;40.34
69219;BME280;56232;53.384;-2.732;2022-10-17T06:30:00;100434.50;;;11.19;40.19
69219;BME280;56232;53.384;-2.732;2022-10-17T06:32:26;100440.31;;;11.19;39.98
69219;BME280;56232;53.384;-2.732;2022-10-17T06:34:52;100446.18;;;11.27;40.11
69219;BME280;56232;53.384;-2.732;2022-10-17T06:37:17;100446.53;;;10.85;39.96
69219;BME280;56232;53.384;-2.732;2022-10-17T06:39:43;100455.25;;;10.25;39.93
69219;BME280;56232;53.384;-2.732;2022-10-17T06:42:08;100454.61;;;11.31;39.73
69219;BME280;56232;53.384;-2.732;2022-10-17T06:44:35;100458.01;;;11.24;39.76
69219;BME280;56232;53.384;-2.732;2022-10-17T06:47:00;100457.38;;;11.20;39.93
69219;BME280;56232;53.384;-2.732;2022-10-17T06:49:26;100462.39;;;11.21;39.71
69219;BME280;56232;53.384;-2.732;2022-10-17T06:51:51;100467.64;;;11.20;39.99
69219;BME280;56232;53.384;-2.732;2022-10-17T06:54:17;100471.41;;;11.23;39.69
69219;BME280;56232;53.384;-2.732;2022-10-17T06:56:42;100479.85;;;11.17;39.68
69219;BME280;56232;53.384;-2.732;2022-10-17T06:59:08;100485.36;;;11.19;39.74
69219;BME280;56232;53.384;-2.732;2022-10-17T07:01:35;100491.30;;;11.72;39.67
69219;BME280;56232;53.384;-2.732;2022-10-17T07:03:59;100497.89;;;11.28;39.58
69219;BME280;56232;53.384;-2.732;2022-10-17T07:06:25;100498.04;;;11.24;39.77
69219;BME280;56232;53.384;-2.732;2022-10-17T07:08:51;100506.36;;;11.34;39.65
69219;BME280;56232;53.384;-2.732;2022-10-17T07:11:22;100509.06;;;10.98;39.39
69219;BME280;56232;53.384;-2.732;2022-10-17T07:13:42;100511.23;;;11.45;39.52
69219;BME280;56232;53.384;-2.732;2022-10-17T07:16:08;100520.70;;;11.43;39.60
69219;BME280;56232;53.384;-2.732;2022-10-17T07:18:34;100527.50;;;11.38;39.57
69219;BME280;56232;53.384;-2.732;2022-10-17T07:20:59;100538.98;;;11.42;39.68
69219;BME280;56232;53.384;-2.732;2022-10-17T07:23:24;100544.33;;;11.46;39.65
69219;BME280;56232;53.384;-2.732;2022-10-17T07:25:50;100551.55;;;11.50;39.30
69219;BME280;56232;53.384;-2.732;2022-10-17T07:28:15;100557.63;;;10.37;39.39
69219;BME280;56232;53.384;-2.732;2022-10-17T07:30:41;100569.90;;;11.62;39.17
69219;BME280;56232;53.384;-2.732;2022-10-17T07:33:06;100572.95;;;10.80;39.16
69219;BME280;56232;53.384;-2.732;2022-10-17T07:35:32;100576.85;;;12.22;38.94
69219;BME280;56232;53.384;-2.732;2022-10-17T07:37:58;100585.64;;;12.59;38.71
69219;BME280;56232;53.384;-2.732;2022-10-17T07:40:23;100598.10;;;11.88;38.62
69219;BME280;56232;53.384;-2.732;2022-10-17T07:42:49;100597.09;;;12.43;38.35
69219;BME280;56232;53.384;-2.732;2022-10-17T07:45:14;100602.24;;;12.95;37.77
69219;BME280;56232;53.384;-2.732;2022-10-17T07:47:40;100611.70;;;12.88;37.74
69219;BME280;56232;53.384;-2.732;2022-10-17T07:50:06;100615.82;;;12.90;37.72
69219;BME280;56232;53.384;-2.732;2022-10-17T07:52:31;100618.97;;;12.36;37.98
69219;BME280;56232;53.384;-2.732;2022-10-17T07:54:57;100621.37;;;12.71;37.87
69219;BME280;56232;53.384;-2.732;2022-10-17T07:57:22;100623.29;;;13.21;38.09
69219;BME280;56232;53.384;-2.732;2022-10-17T07:59:48;100629.29;;;12.53;38.13
69219;BME280;56232;53.384;-2.732;2022-10-17T08:02:19;100634.39;;;12.56;38.23
69219;BME280;56232;53.384;-2.732;2022-10-17T08:04:39;100640.58;;;12.61;38.23
69219;BME280;56232;53.384;-2.732;2022-10-17T08:07:04;100643.77;;;12.72;38.19
69219;BME280;56232;53.384;-2.732;2022-10-17T08:09:29;100647.85;;;12.88;38.38
69219;BME280;56232;53.384;-2.732;2022-10-17T08:11:55;100648.64;;;12.76;38.29
69219;BME280;56232;53.384;-2.732;2022-10-17T08:14:20;100653.43;;;13.05;37.93
69219;BME280;56232;53.384;-2.732;2022-10-17T08:16:46;100652.76;;;13.73;37.82
69219;BME280;56232;53.384;-2.732;2022-10-17T08:19:11;100658.25;;;12.92;37.57
69219;BME280;56232;53.384;-2.732;2022-10-17T08:21:37;100662.58;;;13.98;37.39
69219;BME280;56232;53.384;-2.732;2022-10-17T08:24:03;100670.17;;;13.67;37.29
69219;BME280;56232;53.384;-2.732;2022-10-17T08:26:29;100670.38;;;13.35;37.38
69219;BME280;56232;53.384;-2.732;2022-10-17T08:28:54;100668.51;;;13.68;37.15
69219;BME280;56232;53.384;-2.732;2022-10-17T08:31:20;100670.70;;;14.09;36.78
69219;BME280;56232;53.384;-2.732;2022-10-17T08:33:46;100672.71;;;13.82;36.66
69219;BME280;56232;53.384;-2.732;2022-10-17T08:36:12;100669.71;;;14.67;36.25
69219;BME280;56232;53.384;-2.732;2022-10-17T08:38:36;100670.07;;;16.47;34.80
69219;BME280;56232;53.384;-2.732;2022-10-17T08:41:03;100674.42;;;17.80;32.69
69219;BME280;56232;53.384;-2.732;2022-10-17T08:43:34;100682.25;;;18.66;31.15
69219;BME280;56232;53.384;-2.732;2022-10-17T08:45:55;100679.57;;;17.63;31.10
69219;BME280;56232;53.384;-2.732;2022-10-17T08:48:20;100678.50;;;17.11;31.51
69219;BME280;56232;53.384;-2.732;2022-10-17T08:50:47;100691.52;;;17.05;32.25
69219;BME280;56232;53.384;-2.732;2022-10-17T08:53:14;100693.70;;;17.02;32.24
69219;BME280;56232;53.384;-2.732;2022-10-17T08:55:36;100705.25;;;17.70;30.86
69219;BME280;56232;53.384;-2.732;2022-10-17T08:57:59;100709.67;;;19.94;29.73
69219;BME280;56232;53.384;-2.732;2022-10-17T09:00:27;100711.15;;;20.20;28.78
69219;BME280;56232;53.384;-2.732;2022-10-17T09:03:02;100709.27;;;20.71;28.30
69219;BME280;56232;53.384;-2.732;2022-10-17T09:07:46;100704.70;;;21.19;26.88
69219;BME280;56232;53.384;-2.732;2022-10-17T09:10:12;100707.19;;;21.72;26.90
69219;BME280;56232;53.384;-2.732;2022-10-17T09:12:39;100716.01;;;21.08;26.36
69219;BME280;56232;53.384;-2.732;2022-10-17T09:17:35;100724.49;;;21.58;26.48
69219;BME280;56232;53.384;-2.732;2022-10-17T09:19:57;100734.22;;;22.30;25.71
69219;BME280;56232;53.384;-2.732;2022-10-17T09:22:19;100744.94;;;22.25;26.14
69219;BME280;56232;53.384;-2.732;2022-10-17T09:24:43;100745.75;;;22.85;25.76
69219;BME280;56232;53.384;-2.732;2022-10-17T09:27:14;100754.93;;;22.30;25.32
69219;BME280;56232;53.384;-2.732;2022-10-17T09:29:32;100758.52;;;22.91;25.33
69219;BME280;56232;53.384;-2.732;2022-10-17T09:32:02;100761.32;;;22.86;25.26
69219;BME280;56232;53.384;-2.732;2022-10-17T09:34:25;100771.20;;;22.83;25.93
69219;BME280;56232;53.384;-2.732;2022-10-17T09:36:48;100781.46;;;22.07;26.63
69219;BME280;56232;53.384;-2.732;2022-10-17T09:39:17;100772.99;;;21.43;26.71
69219;BME280;56232;53.384;-2.732;2022-10-17T09:41:41;100776.36;;;21.87;26.59
69219;BME280;56232;53.384;-2.732;2022-10-17T09:44:14;100787.72;;;21.19;26.75
69219;BME280;56232;53.384;-2.732;2022-10-17T09:46:35;100785.49;;;21.21;27.13
69219;BME280;56232;53.384;-2.732;2022-10-17T09:49:00;100784.38;;;21.10;26.85
69219;BME280;56232;53.384;-2.732;2022-10-17T09:51:22;100791.28;;;20.81;27.79
69219;BME280;56232;53.384;-2.732;2022-10-17T09:53:50;100790.49;;;19.53;27.71
69219;BME280;56232;53.384;-2.732;2022-10-17T09:56:16;100803.19;;;18.32;29.46
69219;BME280;56232;53.384;-2.732;2022-10-17T09:58:41;100809.31;;;18.77;31.08
69219;BME280;56232;53.384;-2.732;2022-10-17T10:03:29;100813.49;;;18.26;30.92
69219;BME280;56232;53.384;-2.732;2022-10-17T10:06:00;100818.94;;;17.37;31.96
69219;BME280;56232;53.384;-2.732;2022-10-17T10:08:21;100824.99;;;17.13;32.44
69219;BME280;56232;53.384;-2.732;2022-10-17T10:10:55;100831.64;;;16.98;31.80
69219;BME280;56232;53.384;-2.732;2022-10-17T10:13:17;100840.79;;;16.80;32.34
69219;BME280;56232;53.384;-2.732;2022-10-17T10:15:39;100840.15;;;17.63;33.26
69219;BME280;56232;53.384;-2.732;2022-10-17T10:20:31;100845.39;;;17.45;33.53
69219;BME280;56232;53.384;-2.732;2022-10-17T10:25:19;100854.64;;;16.69;33.51
69219;BME280;56232;53.384;-2.732;2022-10-17T10:27:45;100862.31;;;16.63;34.02
69219;BME280;56232;53.384;-2.732;2022-10-17T10:30:16;100863.39;;;17.23;34.38
69219;BME280;56232;53.384;-2.732;2022-10-17T10:32:36;100867.56;;;17.04;33.78
69219;BME280;56232;53.384;-2.732;2022-10-17T10:35:05;100868.79;;;17.11;34.71
69219;BME280;56232;53.384;-2.732;2022-10-17T10:37:28;100864.00;;;17.55;33.56
69219;BME280;56232;53.384;-2.732;2022-10-17T10:39:53;100870.64;;;16.96;34.87
69219;BME280;56232;53.384;-2.732;2022-10-17T10:42:23;100879.55;;;17.48;34.63
69219;BME280;56232;53.384;-2.732;2022-10-17T10:44:43;100889.19;;;16.96;33.80
69219;BME280;56232;53.384;-2.732;2022-10-17T10:47:16;100898.75;;;16.49;33.13
69219;BME280;56232;53.384;-2.732;2022-10-17T10:49:37;100902.65;;;16.69;33.97
69219;BME280;56232;53.384;-2.732;2022-10-17T10:52:00;100901.77;;;16.60;33.17
69219;BME280;56232;53.384;-2.732;2022-10-17T10:54:30;100901.69;;;16.51;35.41
69219;BME280;56232;53.384;-2.732;2022-10-17T10:56:53;100900.60;;;17.28;35.59
69219;BME280;56232;53.384;-2.732;2022-10-17T10:59:20;100908.43;;;16.12;35.10
69219;BME280;56232;53.384;-2.732;2022-10-17T11:01:47;100911.00;;;16.12;34.34
69219;BME280;56232;53.384;-2.732;2022-10-17T11:04:16;100923.19;;;15.95;36.64
69219;BME280;56232;53.384;-2.732;2022-10-17T11:06:36;100933.08;;;17.36;35.76
69219;BME280;56232;53.384;-2.732;2022-10-17T11:09:09;100935.82;;;16.67;35.03
69219;BME280;56232;53.384;-2.732;2022-10-17T11:11:27;100920.42;;;16.75;36.45
69219;BME280;56232;53.384;-2.732;2022-10-17T11:13:53;100930.84;;;17.53;34.71
69219;BME280;56232;53.384;-2.732;2022-10-17T11:16:22;100934.49;;;16.49;36.66
69219;BME280;56232;53.384;-2.732;2022-10-17T11:18:44;100938.41;;;16.81;36.85
69219;BME280;56232;53.384;-2.732;2022-10-17T11:21:13;100953.95;;;16.85;35.19
69219;BME280;56232;53.384;-2.732;2022-10-17T11:23:40;100960.72;;;17.03;35.37
69219;BME280;56232;53.384;-2.732;2022-10-17T11:26:01;100963.50;;;17.21;33.99
69219;BME280;56232;53.384;-2.732;2022-10-17T11:28:23;100954.05;;;16.87;35.46
69219;BME280;56232;53.384;-2.732;2022-10-17T11:30:51;100954.90;;;16.89;35.16
69219;BME280;56232;53.384;-2.732;2022-10-17T11:33:18;100956.48;;;16.79;36.45
69219;BME280;56232;53.384;-2.732;2022-10-17T11:35:41;100959.12;;;17.26;36.06
69219;BME280;56232;53.384;-2.732;2022-10-17T11:38:11;100968.56;;;16.85;36.99
69219;BME280;56232;53.384;-2.732;2022-10-17T11:40:33;100976.83;;;17.02;36.29
69219;BME280;56232;53.384;-2.732;2022-10-17T11:42:58;100976.58;;;17.45;36.98
69219;BME280;56232;53.384;-2.732;2022-10-17T11:45:22;100988.91;;;17.60;36.29
69219;BME280;56232;53.384;-2.732;2022-10-17T11:47:50;100994.46;;;16.83;35.80
69219;BME280;56232;53.384;-2.732;2022-10-17T11:50:21;101001.85;;;17.24;34.92
69219;BME280;56232;53.384;-2.732;2022-10-17T11:52:41;101008.72;;;16.85;33.07
69219;BME280;56232;53.384;-2.732;2022-10-17T11:55:10;101017.93;;;17.04;34.58
69219;BME280;56232;53.384;-2.732;2022-10-17T11:57:39;101017.07;;;17.85;34.92
69219;BME280;56232;53.384;-2.732;2022-10-17T12:00:03;101016.97;;;17.82;35.71
69219;BME280;56232;53.384;-2.732;2022-10-17T12:02:28;101008.27;;;17.38;36.37
69219;BME280;56232;53.384;-2.732;2022-10-17T12:04:57;101016.38;;;16.92;35.65
69219;BME280;56232;53.384;-2.732;2022-10-17T12:07:16;101014.80;;;17.46;36.09
69219;BME280;56232;53.384;-2.732;2022-10-17T12:09:40;101003.31;;;18.15;34.96
69219;BME280;56232;53.384;-2.732;2022-10-17T12:12:03;101010.44;;;16.86;35.86
69219;BME280;56232;53.384;-2.732;2022-10-17T12:14:35;101012.37;;;17.08;36.40
69219;BME280;56232;53.384;-2.732;2022-10-17T12:16:54;101028.16;;;17.86;34.00
69219;BME280;56232;53.384;-2.732;2022-10-17T12:19:25;101036.66;;;17.45;35.44
69219;BME280;56232;53.384;-2.732;2022-10-17T12:21:54;101021.78;;;18.15;34.51
69219;BME280;56232;53.384;-2.732;2022-10-17T12:24:18;101022.04;;;17.42;36.26
69219;BME280;56232;53.384;-2.732;2022-10-17T12:26:37;101011.02;;;18.00;35.31
69219;BME280;56232;53.384;-2.732;2022-10-17T12:29:02;101010.53;;;17.26;35.20
69219;BME280;56232;53.384;-2.732;2022-10-17T12:31:27;101021.53;;;18.34;35.06
69219;BME280;56232;53.384;-2.732;2022-10-17T12:33:54;101019.01;;;18.17;35.76
69219;BME280;56232;53.384;-2.732;2022-10-17T12:38:46;101032.46;;;17.99;35.05
69219;BME280;56232;53.384;-2.732;2022-10-17T12:41:10;101021.11;;;17.44;35.79
69219;BME280;56232;53.384;-2.732;2022-10-17T12:43:44;101023.98;;;18.01;35.41
69219;BME280;56232;53.384;-2.732;2022-10-17T12:46:02;101031.12;;;18.43;36.56
69219;BME280;56232;53.384;-2.732;2022-10-17T12:51:01;101047.25;;;18.62;34.62